Justin Paul Eckstein — WDH6444 — position and weather

sailwx.info

Track history (hours):
 
Tides and Currents Weather Stations Pressure Air Temp Water Temp Dewpoint Dewpoint Depression Visibility Wind Speed Wind Dir Waves Ship Positions

Justin Paul Eckstein

Owner: Marquette Transportation Co. LLC, Paducah, KY. More information available from US FCC via Universal Licensing System and Coast Guard Vessel Documentation Center.

Last reported at 2018-Jun-15 11:21 UTC. Time now 2018-Jun-23 12:18 UTC.
Position N 32°44' W 091°07'.
Warning: this ship's position is 8 days out of date.

Length 61 m; draft 3.2 m.

Type: Tow > 200 m length. MMSI: 367608030.

Date/timePositionNaut miles runAvg speedWind from/ knotsBaromVisibWave heightAir tempDewpointWater temp
2018-Jun-15 11:21N 32°44' W 091°07'2 2.5
2018-Jun-15 10:28N 32°44' W 091°04'3 3.7
2018-Jun-15 09:41N 32°41' W 091°05'1 4.9
2018-Jun-15 09:27N 32°41' W 091°06'2 4.5
2018-Jun-15 09:00N 32°40' W 091°08'2 3.7
2018-Jun-15 08:26N 32°38' W 091°09'2 4.7
2018-Jun-15 08:00N 32°36' W 091°08'2 4.5
2018-Jun-15 07:30N 32°34' W 091°07'2 4.1
2018-Jun-15 07:00N 32°32' W 091°06'2 4.8
2018-Jun-15 06:30N 32°30' W 091°07'2 4.5
2018-Jun-15 06:00N 32°28' W 091°06'2 4.4
2018-Jun-15 05:30N 32°27' W 091°04'2 4.6
2018-Jun-15 05:00N 32°26' W 091°02'2 4.2
2018-Jun-15 04:30N 32°25' W 090°60'1 2.6
2018-Jun-15 04:00N 32°23' W 090°60'2 4.2
2018-Jun-15 03:30N 32°21' W 090°60'2 4.5
2018-Jun-15 03:00N 32°21' W 090°57'2 4.4
2018-Jun-15 02:30N 32°20' W 090°55'2 3.3
2018-Jun-15 02:00N 32°19' W 090°55'2 4.7
2018-Jun-15 01:30N 32°17' W 090°57'2 4.3
2018-Jun-15 01:00N 32°15' W 090°58'2 4.5
2018-Jun-15 00:30N 32°13' W 090°59'2 4.6
2018-Jun-15 00:00N 32°11' W 090°60'2 4.1
2018-Jun-14 23:30N 32°09' W 091°00'2 4.1
2018-Jun-14 23:00N 32°07' W 091°02'2 4.2
2018-Jun-14 22:30N 32°08' W 091°04'2 4.2
2018-Jun-14 22:00N 32°08' W 091°06'2 4.0
2018-Jun-14 21:25N 32°05' W 091°05'2 4.5
2018-Jun-14 20:58N 32°04' W 091°04'28 3.8
2018-Jun-14 13:42N 31°42' W 091°24'82 2.6
2018-Jun-13 05:29N 30°20' W 091°13'3 1.4
2018-Jun-13 02:57N 30°17' W 091°12'  
2018-Jun-08 20:45N 31°57' W 091°11'4 8.5
2018-Jun-08 20:17N 31°59' W 091°07'4 9.2
2018-Jun-08 19:52N 32°02' W 091°04'3 8.3
2018-Jun-08 19:30N 32°05' W 091°05'3 5.9
2018-Jun-08 19:00N 32°07' W 091°06'3 6.9
2018-Jun-08 18:30N 32°07' W 091°02'4 8.4
2018-Jun-08 18:00N 32°11' W 090°60'5 9.5
2018-Jun-08 17:30N 32°15' W 090°58'5 9.7
2018-Jun-08 17:00N 32°19' W 090°54'2 3.0
2018-Jun-08 16:30N 32°20' W 090°54'3 6.4
2018-Jun-08 16:00N 32°21' W 090°58'3 7.0
2018-Jun-08 15:30N 32°24' W 090°59'5 9.0
2018-Jun-08 15:00N 32°27' W 091°04'4 8.9
2018-Jun-08 14:30N 32°30' W 091°07'4 8.7
2018-Jun-08 14:00N 32°35' W 091°07'4 8.9
2018-Jun-08 13:30N 32°39' W 091°09'5 9.4
2018-Jun-08 12:58N 32°42' W 091°04'4 6.3
2018-Jun-08 12:24N 32°44' W 091°07'5 7.1
2018-Jun-08 11:43N 32°49' W 091°09'  
Track history (hours):
 
Tides and Currents Weather Stations Pressure Air Temp Water Temp Dewpoint Dewpoint Depression Visibility Wind Speed Wind Dir Waves Ship Positions

Justin Paul Eckstein

Owner: Marquette Transportation Co. LLC, Paducah, KY. More information available from US FCC via Universal Licensing System and Coast Guard Vessel Documentation Center.

Last reported at 2018-Jun-15 11:21 UTC. Time now 2018-Jun-23 12:18 UTC.
Position N 32°44' W 091°07'.
Warning: this ship's position is 8 days out of date.

Length 61 m; draft 3.2 m.

Type: Tow > 200 m length. MMSI: 367608030.

Date/timePositionNaut miles runAvg speedWind from/ knotsBaromVisibWave heightAir tempDewpointWater temp
2018-Jun-15 11:21N 32°44' W 091°07'2 2.5
2018-Jun-15 10:28N 32°44' W 091°04'3 3.7
2018-Jun-15 09:41N 32°41' W 091°05'1 4.9
2018-Jun-15 09:27N 32°41' W 091°06'2 4.5
2018-Jun-15 09:00N 32°40' W 091°08'2 3.7
2018-Jun-15 08:26N 32°38' W 091°09'2 4.7
2018-Jun-15 08:00N 32°36' W 091°08'2 4.5
2018-Jun-15 07:30N 32°34' W 091°07'2 4.1
2018-Jun-15 07:00N 32°32' W 091°06'2 4.8
2018-Jun-15 06:30N 32°30' W 091°07'2 4.5
2018-Jun-15 06:00N 32°28' W 091°06'2 4.4
2018-Jun-15 05:30N 32°27' W 091°04'2 4.6
2018-Jun-15 05:00N 32°26' W 091°02'2 4.2
2018-Jun-15 04:30N 32°25' W 090°60'1 2.6
2018-Jun-15 04:00N 32°23' W 090°60'2 4.2
2018-Jun-15 03:30N 32°21' W 090°60'2 4.5
2018-Jun-15 03:00N 32°21' W 090°57'2 4.4
2018-Jun-15 02:30N 32°20' W 090°55'2 3.3
2018-Jun-15 02:00N 32°19' W 090°55'2 4.7
2018-Jun-15 01:30N 32°17' W 090°57'2 4.3
2018-Jun-15 01:00N 32°15' W 090°58'2 4.5
2018-Jun-15 00:30N 32°13' W 090°59'2 4.6
2018-Jun-15 00:00N 32°11' W 090°60'2 4.1
2018-Jun-14 23:30N 32°09' W 091°00'2 4.1
2018-Jun-14 23:00N 32°07' W 091°02'2 4.2
2018-Jun-14 22:30N 32°08' W 091°04'2 4.2
2018-Jun-14 22:00N 32°08' W 091°06'2 4.0
2018-Jun-14 21:25N 32°05' W 091°05'2 4.5
2018-Jun-14 20:58N 32°04' W 091°04'28 3.8
2018-Jun-14 13:42N 31°42' W 091°24'82 2.6
2018-Jun-13 05:29N 30°20' W 091°13'3 1.4
2018-Jun-13 02:57N 30°17' W 091°12'  
2018-Jun-08 20:45N 31°57' W 091°11'4 8.5
2018-Jun-08 20:17N 31°59' W 091°07'4 9.2
2018-Jun-08 19:52N 32°02' W 091°04'3 8.3
2018-Jun-08 19:30N 32°05' W 091°05'3 5.9
2018-Jun-08 19:00N 32°07' W 091°06'3 6.9
2018-Jun-08 18:30N 32°07' W 091°02'4 8.4
2018-Jun-08 18:00N 32°11' W 090°60'5 9.5
2018-Jun-08 17:30N 32°15' W 090°58'5 9.7
2018-Jun-08 17:00N 32°19' W 090°54'2 3.0
2018-Jun-08 16:30N 32°20' W 090°54'3 6.4
2018-Jun-08 16:00N 32°21' W 090°58'3 7.0
2018-Jun-08 15:30N 32°24' W 090°59'5 9.0
2018-Jun-08 15:00N 32°27' W 091°04'4 8.9
2018-Jun-08 14:30N 32°30' W 091°07'4 8.7
2018-Jun-08 14:00N 32°35' W 091°07'4 8.9
2018-Jun-08 13:30N 32°39' W 091°09'5 9.4
2018-Jun-08 12:58N 32°42' W 091°04'4 6.3
2018-Jun-08 12:24N 32°44' W 091°07'5 7.1
2018-Jun-08 11:43N 32°49' W 091°09'  

Dump ship's entire track history